createdAt,value
2019-01-25T00:00:08.918Z,56.70
2019-01-25T00:02:36.319Z,55.63
2019-01-25T00:05:05.298Z,72.13
2019-01-25T00:07:32.697Z,48.50
2019-01-25T00:10:00.208Z,46.07
2019-01-25T00:12:27.699Z,48.47
2019-01-25T00:14:55.102Z,61.77
2019-01-25T00:17:22.499Z,56.87
2019-01-25T00:19:49.920Z,61.33
2019-01-25T00:22:17.314Z,68.33
2019-01-25T00:24:44.711Z,61.10
2019-01-25T00:27:12.323Z,65.73
2019-01-25T00:29:39.714Z,65.60
2019-01-25T00:32:07.127Z,61.50
2019-01-25T00:34:34.566Z,63.87
2019-01-25T00:37:02.200Z,66.20
2019-01-25T00:39:29.618Z,67.67
2019-01-25T00:41:57.511Z,59.60
2019-01-25T00:44:24.906Z,70.67
2019-01-25T00:46:52.306Z,59.40
2019-01-25T00:49:19.719Z,75.33
2019-01-25T00:51:47.111Z,64.43
2019-01-25T00:54:14.495Z,50.47
2019-01-25T00:56:42.034Z,47.20
2019-01-25T00:59:09.434Z,54.37
2019-01-25T01:01:36.828Z,47.93
2019-01-25T01:04:04.650Z,49.03
2019-01-25T01:06:32.041Z,48.73
2019-01-25T01:08:59.439Z,47.73
2019-01-25T01:11:27.050Z,51.17
2019-01-25T01:13:54.440Z,59.90
2019-01-25T01:16:21.831Z,54.20
2019-01-25T01:18:49.275Z,64.43
2019-01-25T01:21:16.671Z,72.30
2019-01-25T01:23:44.056Z,63.03
2019-01-25T01:26:11.620Z,62.87
2019-01-25T01:28:39.023Z,65.70
2019-01-25T01:31:06.402Z,56.20
2019-01-25T01:33:34.012Z,64.93
2019-01-25T01:36:01.691Z,61.57
2019-01-25T01:38:29.393Z,59.67
2019-01-25T01:40:57.010Z,65.00
2019-01-25T01:43:24.408Z,65.20
2019-01-25T01:45:51.804Z,61.77
2019-01-25T01:48:19.227Z,63.53
2019-01-25T01:50:46.610Z,62.50
2019-01-25T01:53:14.014Z,63.53
2019-01-25T01:55:41.679Z,58.90
2019-01-25T01:58:09.089Z,62.83
2019-01-25T02:00:36.487Z,56.00
2019-01-25T02:03:04.496Z,58.33
2019-01-25T02:05:31.871Z,51.47
2019-01-25T02:07:59.423Z,50.50
2019-01-25T02:10:29.613Z,50.23
2019-01-25T02:12:56.418Z,55.80
2019-01-25T02:15:24.618Z,50.53
2019-01-25T02:17:52.284Z,47.27
2019-01-25T02:20:24.821Z,45.90
2019-01-25T02:22:52.211Z,48.93
2019-01-25T02:25:20.134Z,48.07
2019-01-25T02:27:47.536Z,46.30
2019-01-25T02:30:17.731Z,53.37
2019-01-25T02:32:45.172Z,46.47
2019-01-25T02:35:12.571Z,51.13
2019-01-25T02:37:40.218Z,46.33
2019-01-25T02:40:10.521Z,49.70
2019-01-25T02:42:37.938Z,45.17
2019-01-25T02:45:06.905Z,50.37
2019-01-25T02:47:34.533Z,49.30
2019-01-25T02:50:01.963Z,43.47
2019-01-25T02:52:29.346Z,40.50
2019-01-25T02:54:56.817Z,44.03
2019-01-25T02:57:24.202Z,51.00
2019-01-25T02:59:51.597Z,48.30
2019-01-25T03:02:19.133Z,43.73
2019-01-25T03:04:46.522Z,38.60
2019-01-25T03:07:13.935Z,40.63
2019-01-25T03:09:41.362Z,39.73
2019-01-25T03:12:08.756Z,35.00
2019-01-25T03:14:36.165Z,42.13
2019-01-25T03:17:03.594Z,38.20
2019-01-25T03:19:31.001Z,38.00
2019-01-25T03:21:59.553Z,42.10
2019-01-25T03:24:26.958Z,40.03
2019-01-25T03:26:54.359Z,36.17
2019-01-25T03:29:21.802Z,38.63
2019-01-25T03:31:49.252Z,45.63
2019-01-25T03:34:16.636Z,41.60
2019-01-25T03:36:44.324Z,42.90
2019-01-25T03:39:12.130Z,44.47
2019-01-25T03:41:39.527Z,51.03
2019-01-25T03:44:06.923Z,48.27
2019-01-25T03:46:34.345Z,40.03
2019-01-25T03:49:01.752Z,34.17
2019-01-25T03:51:29.154Z,41.97
2019-01-25T03:53:56.755Z,44.20
2019-01-25T03:56:24.161Z,41.77
2019-01-25T03:58:51.552Z,34.17
2019-01-25T04:01:18.990Z,41.93
2019-01-25T04:03:46.392Z,44.67
2019-01-25T04:06:13.791Z,37.87
2019-01-25T04:08:41.229Z,36.97
2019-01-25T04:11:08.619Z,33.93
2019-01-25T04:13:36.018Z,29.27
2019-01-25T04:16:04.091Z,30.83
2019-01-25T04:18:31.506Z,31.70
2019-01-25T04:20:58.902Z,32.90
2019-01-25T04:23:26.610Z,34.80
2019-01-25T04:25:54.011Z,29.33
2019-01-25T04:28:21.397Z,35.70
2019-01-25T04:30:49.098Z,44.10
2019-01-25T04:33:16.522Z,33.57
2019-01-25T04:35:43.921Z,32.57
2019-01-25T04:38:11.363Z,37.03
2019-01-25T04:40:39.275Z,34.60
2019-01-25T04:43:06.675Z,45.40
2019-01-25T04:45:34.138Z,40.53
2019-01-25T04:48:01.541Z,45.47
2019-01-25T04:50:28.931Z,48.63
2019-01-25T04:52:56.577Z,44.17
2019-01-25T04:55:29.472Z,38.70
2019-01-25T04:58:17.745Z,48.97
2019-01-25T05:00:45.266Z,57.60
2019-01-25T05:03:13.048Z,51.50
2019-01-25T05:05:40.515Z,51.50
2019-01-25T05:08:16.231Z,52.80
2019-01-25T05:10:44.111Z,52.83
2019-01-25T05:13:11.503Z,51.13
2019-01-25T05:15:38.900Z,51.07
2019-01-25T05:18:07.111Z,46.30
2019-01-25T05:20:34.618Z,49.60
2019-01-25T05:23:02.535Z,52.20
2019-01-25T05:25:29.979Z,54.27
2019-01-25T05:28:05.318Z,53.87
2019-01-25T05:30:32.755Z,57.73
2019-01-25T05:33:00.150Z,49.33
2019-01-25T05:35:32.770Z,44.27
2019-01-25T05:38:00.227Z,46.63
2019-01-25T05:40:27.814Z,48.70
2019-01-25T05:42:55.213Z,47.70
2019-01-25T05:45:22.918Z,37.00
2019-01-25T05:47:50.306Z,42.07
2019-01-25T05:50:17.735Z,47.90
2019-01-25T05:52:45.282Z,57.63
2019-01-25T05:55:15.963Z,51.43
2019-01-25T05:57:43.327Z,41.13
2019-01-25T06:00:11.936Z,46.63
2019-01-25T06:02:39.347Z,51.93
2019-01-25T06:05:07.005Z,47.43
2019-01-25T06:07:36.425Z,51.63
2019-01-25T06:10:04.426Z,45.40
2019-01-25T06:12:31.883Z,47.80
2019-01-25T06:14:59.327Z,52.47
2019-01-25T06:17:26.922Z,47.47
2019-01-25T06:19:54.349Z,52.10
2019-01-25T06:22:21.794Z,57.63
2019-01-25T06:24:49.205Z,55.20
2019-01-25T06:27:16.607Z,50.43
2019-01-25T06:29:44.058Z,55.20
2019-01-25T06:32:11.510Z,53.23
2019-01-25T06:34:38.898Z,51.93
2019-01-25T06:37:06.338Z,49.00
2019-01-25T06:39:33.954Z,65.97
2019-01-25T06:42:01.642Z,58.27
2019-01-25T06:44:29.094Z,58.50
2019-01-25T06:46:56.494Z,58.20
2019-01-25T06:49:23.885Z,61.00
2019-01-25T06:51:51.354Z,54.03
2019-01-25T06:54:18.766Z,50.20
2019-01-25T06:56:46.156Z,53.13
2019-01-25T06:59:16.338Z,55.07
2019-01-25T07:01:53.203Z,49.37
2019-01-25T07:04:21.149Z,64.47
2019-01-25T07:06:48.546Z,56.03
2019-01-25T07:09:15.936Z,64.47
2019-01-25T07:11:43.743Z,73.50
2019-01-25T07:14:11.140Z,62.93
2019-01-25T07:16:38.532Z,54.10
2019-01-25T07:19:05.992Z,71.00
2019-01-25T07:21:33.390Z,76.70
2019-01-25T07:24:00.803Z,101.67
2019-01-25T07:26:28.406Z,75.30
2019-01-25T07:28:55.870Z,73.90
2019-01-25T07:31:23.255Z,58.03
2019-01-25T07:33:50.711Z,62.63
2019-01-25T07:36:18.104Z,61.97
2019-01-25T07:38:45.768Z,54.40
2019-01-25T07:41:13.588Z,54.27
2019-01-25T07:43:41.041Z,47.40
2019-01-25T07:46:08.500Z,52.13
2019-01-25T07:48:36.184Z,51.07
2019-01-25T07:51:03.765Z,55.70
2019-01-25T07:53:31.159Z,53.90
2019-01-25T07:55:58.616Z,51.60
2019-01-25T07:58:26.037Z,46.93
2019-01-25T08:00:53.465Z,40.70
2019-01-25T08:03:20.882Z,61.10
2019-01-25T08:05:48.312Z,61.73
2019-01-25T08:08:15.687Z,58.67
2019-01-25T08:10:43.240Z,56.00
2019-01-25T08:13:10.643Z,54.50
2019-01-25T08:15:38.065Z,56.30
2019-01-25T08:18:05.561Z,66.87
2019-01-25T08:20:32.958Z,54.63
2019-01-25T08:23:00.347Z,61.40
2019-01-25T08:25:28.047Z,54.00
2019-01-25T08:27:55.605Z,46.60
2019-01-25T08:30:23.196Z,53.57
2019-01-25T08:32:52.428Z,52.37
2019-01-25T08:35:20.700Z,61.80
2019-01-25T08:37:48.365Z,54.70
2019-01-25T08:40:16.269Z,49.53
2019-01-25T08:42:43.911Z,48.07
2019-01-25T08:45:12.025Z,58.03
2019-01-25T08:47:39.417Z,48.10
2019-01-25T08:50:10.786Z,47.53
2019-01-25T08:52:38.375Z,54.07
2019-01-25T08:55:06.034Z,57.30
2019-01-25T08:57:33.413Z,48.30
2019-01-25T09:00:00.851Z,50.23
2019-01-25T09:02:28.242Z,52.87
2019-01-25T09:04:55.650Z,51.93
2019-01-25T09:07:23.263Z,59.83
2019-01-25T09:09:50.674Z,51.70
2019-01-25T09:12:23.283Z,50.10
2019-01-25T09:14:47.498Z,41.57
2019-01-25T09:17:14.955Z,50.47
2019-01-25T09:19:42.362Z,52.93
2019-01-25T09:22:09.820Z,58.93
2019-01-25T09:24:37.238Z,59.20
2019-01-25T09:27:05.643Z,59.27
2019-01-25T09:29:33.188Z,54.83
2019-01-25T09:32:00.576Z,60.00
2019-01-25T09:34:27.964Z,57.93
2019-01-25T09:36:55.586Z,54.40
2019-01-25T09:39:23.158Z,65.03
2019-01-25T09:41:50.758Z,56.50
2019-01-25T09:44:18.190Z,51.80
2019-01-25T09:46:45.577Z,50.20
2019-01-25T09:49:12.988Z,51.73
2019-01-25T09:51:40.562Z,54.83
2019-01-25T09:54:07.992Z,52.70
2019-01-25T09:56:35.463Z,48.60
2019-01-25T09:59:03.198Z,56.57
2019-01-25T10:01:30.603Z,54.37
2019-01-25T10:03:57.986Z,52.37
2019-01-25T10:06:25.534Z,54.60
2019-01-25T10:08:52.954Z,56.97
2019-01-25T10:11:20.362Z,33.70
2019-01-25T10:13:48.241Z,40.43
2019-01-25T10:16:15.626Z,48.40
2019-01-25T10:18:43.042Z,56.57
2019-01-25T10:21:10.482Z,49.80
2019-01-25T10:23:39.244Z,44.77
2019-01-25T10:26:06.777Z,50.80
2019-01-25T10:28:34.226Z,49.27
2019-01-25T10:31:01.721Z,45.57
2019-01-25T10:33:29.106Z,42.17
2019-01-25T10:35:56.530Z,41.63
2019-01-25T10:38:24.196Z,45.57
2019-01-25T10:40:52.098Z,40.73
2019-01-25T10:43:19.566Z,39.87
2019-01-25T10:45:46.966Z,45.43
2019-01-25T10:48:14.354Z,44.13
2019-01-25T10:50:41.994Z,40.53
2019-01-25T10:53:09.394Z,41.40
2019-01-25T10:55:36.787Z,45.20
2019-01-25T10:58:05.474Z,40.17
2019-01-25T11:00:32.888Z,42.30
2019-01-25T11:03:00.279Z,41.17
2019-01-25T11:05:28.184Z,42.40
2019-01-25T11:07:55.799Z,43.20
2019-01-25T11:10:23.290Z,40.23
2019-01-25T11:12:50.730Z,45.27
2019-01-25T11:15:21.690Z,38.07
2019-01-25T11:17:49.534Z,41.00
2019-01-25T11:20:21.760Z,46.40
2019-01-25T11:22:49.271Z,37.63
2019-01-25T11:25:24.848Z,43.20
2019-01-25T11:27:52.234Z,40.27
2019-01-25T11:30:19.842Z,41.33
2019-01-25T11:32:47.386Z,36.87
2019-01-25T11:35:14.786Z,40.53
2019-01-25T11:37:42.209Z,41.17
2019-01-25T11:40:22.459Z,39.73
2019-01-25T11:42:50.650Z,34.60
2019-01-25T11:45:18.140Z,30.30
2019-01-25T11:47:46.075Z,32.60
2019-01-25T11:50:14.603Z,32.43
2019-01-25T11:52:42.002Z,30.70
2019-01-25T11:55:09.954Z,29.77
2019-01-25T11:57:37.354Z,32.20
2019-01-25T12:00:08.419Z,33.93
2019-01-25T12:02:35.850Z,27.30
2019-01-25T12:05:03.758Z,27.33
2019-01-25T12:07:31.159Z,29.70
2019-01-25T12:09:58.607Z,27.37
2019-01-25T12:12:25.986Z,30.60
2019-01-25T12:14:53.395Z,32.73
2019-01-25T12:17:20.812Z,35.80
2019-01-25T12:19:48.225Z,31.93
2019-01-25T12:22:15.617Z,33.33
2019-01-25T12:24:43.055Z,27.60
2019-01-25T12:27:10.451Z,28.30
2019-01-25T12:29:37.868Z,35.47
2019-01-25T12:32:05.319Z,27.60
2019-01-25T12:34:32.742Z,30.30
2019-01-25T12:37:04.607Z,27.00
2019-01-25T12:39:29.538Z,30.20
2019-01-25T12:41:57.454Z,33.80
2019-01-25T12:44:24.836Z,38.07
2019-01-25T12:46:52.271Z,32.87
2019-01-25T12:49:19.674Z,33.73
2019-01-25T12:51:53.783Z,28.73
2019-01-25T12:54:21.202Z,28.97
2019-01-25T12:56:48.668Z,33.60
2019-01-25T12:59:16.159Z,35.03
2019-01-25T13:01:43.570Z,41.07
2019-01-25T13:04:10.995Z,30.77
2019-01-25T13:06:38.594Z,37.43
2019-01-25T13:09:08.818Z,29.13
2019-01-25T13:11:36.214Z,28.67
2019-01-25T13:14:03.767Z,29.17
2019-01-25T13:16:31.182Z,38.43
2019-01-25T13:19:00.394Z,31.37
2019-01-25T13:21:27.897Z,32.40
2019-01-25T13:23:55.286Z,32.70
2019-01-25T13:26:24.514Z,31.03
2019-01-25T13:28:51.973Z,32.40
2019-01-25T13:31:19.370Z,28.00
2019-01-25T13:33:48.674Z,29.27
2019-01-25T13:36:16.199Z,30.33
2019-01-25T13:38:43.595Z,32.90
2019-01-25T13:41:11.355Z,33.47
2019-01-25T13:43:39.358Z,37.43
2019-01-25T13:46:06.906Z,30.63
2019-01-25T13:48:34.298Z,33.20
2019-01-25T13:51:01.912Z,34.77
2019-01-25T13:53:29.298Z,35.17
2019-01-25T13:55:56.690Z,38.00
2019-01-25T13:58:24.160Z,45.70
2019-01-25T14:00:51.548Z,31.37
2019-01-25T14:03:18.943Z,34.63
2019-01-25T14:05:46.586Z,28.70
2019-01-25T14:08:14.039Z,39.87
2019-01-25T14:10:41.476Z,35.13
2019-01-25T14:13:09.070Z,31.23
2019-01-25T14:15:36.538Z,33.73
2019-01-25T14:18:04.762Z,32.87
2019-01-25T14:20:32.474Z,29.43
2019-01-25T14:23:00.005Z,34.07
2019-01-25T14:25:27.482Z,32.70
2019-01-25T14:27:54.931Z,33.50
2019-01-25T14:30:30.038Z,30.70
2019-01-25T14:32:57.673Z,35.10
2019-01-25T14:35:26.871Z,35.97
2019-01-25T14:37:54.271Z,35.97
2019-01-25T14:40:21.755Z,29.37
2019-01-25T14:42:49.223Z,42.67
2019-01-25T14:45:16.903Z,41.97
2019-01-25T14:47:44.360Z,84.60
2019-01-25T14:50:14.839Z,35.60
2019-01-25T14:52:42.259Z,57.50
2019-01-25T14:55:09.911Z,31.57
2019-01-25T14:57:37.320Z,31.00
2019-01-25T15:00:05.552Z,27.87
2019-01-25T15:02:33.001Z,32.37
2019-01-25T15:05:00.529Z,35.70
2019-01-25T15:07:27.914Z,35.13
2019-01-25T15:09:55.470Z,35.47
2019-01-25T15:12:22.926Z,39.97
2019-01-25T15:14:50.311Z,32.20
2019-01-25T15:17:17.930Z,31.73
2019-01-25T15:19:45.322Z,29.20
2019-01-25T15:22:12.727Z,30.53
2019-01-25T15:24:40.322Z,33.80
2019-01-25T15:27:07.760Z,31.13
2019-01-25T15:29:35.151Z,36.13
2019-01-25T15:32:02.656Z,33.00
2019-01-25T15:34:30.062Z,36.87
2019-01-25T15:36:57.463Z,29.70
2019-01-25T15:39:24.994Z,32.13
2019-01-25T15:41:52.675Z,25.27
2019-01-25T15:44:20.288Z,27.27
2019-01-25T15:46:47.730Z,25.90
2019-01-25T15:49:15.175Z,26.53
2019-01-25T15:51:42.655Z,31.73
2019-01-25T15:54:10.286Z,32.50
2019-01-25T15:56:37.690Z,25.83
2019-01-25T15:59:05.095Z,23.60
2019-01-25T16:01:32.524Z,26.93
2019-01-25T16:03:59.922Z,33.60
2019-01-25T16:06:27.336Z,29.80
2019-01-25T16:08:54.794Z,29.40
2019-01-25T16:11:22.199Z,36.93
2019-01-25T16:13:49.903Z,33.37
2019-01-25T16:16:17.358Z,30.73
2019-01-25T16:18:44.754Z,25.50
2019-01-25T16:21:12.158Z,21.80
2019-01-25T16:23:39.594Z,22.40
2019-01-25T16:26:07.070Z,21.93
2019-01-25T16:28:34.458Z,28.57
2019-01-25T16:31:02.127Z,28.90
2019-01-25T16:33:29.506Z,25.93
2019-01-25T16:35:56.916Z,26.63
2019-01-25T16:38:24.488Z,23.20
2019-01-25T16:40:52.072Z,30.87
2019-01-25T16:43:20.525Z,22.83
2019-01-25T16:45:48.106Z,43.93
2019-01-25T16:48:15.518Z,25.80
2019-01-25T16:50:42.995Z,21.97
2019-01-25T16:53:12.044Z,23.10
2019-01-25T16:55:39.447Z,26.43
2019-01-25T16:58:07.083Z,31.13
2019-01-25T17:00:40.384Z,26.00
2019-01-25T17:03:07.892Z,25.90
2019-01-25T17:05:36.786Z,24.23
2019-01-25T17:08:04.935Z,47.40
2019-01-25T17:10:32.330Z,36.07
2019-01-25T17:13:00.546Z,32.17
2019-01-25T17:15:27.942Z,39.67
2019-01-25T17:17:55.344Z,36.60
2019-01-25T17:20:23.075Z,33.43
2019-01-25T17:22:50.465Z,31.57
2019-01-25T17:25:17.874Z,28.00
2019-01-25T17:27:45.330Z,34.70
2019-01-25T17:30:26.793Z,26.47
2019-01-25T17:32:55.255Z,32.43
2019-01-25T17:35:22.662Z,22.10
2019-01-25T17:37:50.163Z,23.30
2019-01-25T17:40:19.082Z,25.17
2019-01-25T17:42:46.490Z,36.57
2019-01-25T17:45:15.022Z,39.67
2019-01-25T17:47:42.426Z,28.80
2019-01-25T17:50:11.406Z,25.67
2019-01-25T17:52:38.894Z,27.57
2019-01-25T17:55:07.155Z,29.17
2019-01-25T17:57:34.562Z,26.73
2019-01-25T18:00:02.039Z,25.43
2019-01-25T18:02:29.574Z,27.00
2019-01-25T18:04:57.070Z,30.00
2019-01-25T18:07:24.758Z,27.73
2019-01-25T18:09:52.176Z,24.60
2019-01-25T18:12:19.569Z,25.00
2019-01-25T18:14:49.326Z,25.83
2019-01-25T18:17:16.210Z,24.20
2019-01-25T18:19:43.622Z,23.33
2019-01-25T18:22:11.087Z,23.80
2019-01-25T18:24:38.486Z,25.47
2019-01-25T18:27:05.899Z,27.47
2019-01-25T18:30:00.099Z,29.27
2019-01-25T18:32:27.558Z,30.77
2019-01-25T18:34:54.961Z,22.13
2019-01-25T18:37:22.436Z,18.47
2019-01-25T18:39:49.846Z,24.67
2019-01-25T18:42:17.446Z,22.90
2019-01-25T18:44:44.922Z,20.47
2019-01-25T18:47:12.550Z,25.87
2019-01-25T18:49:39.956Z,30.30
2019-01-25T18:52:07.626Z,25.77
2019-01-25T18:54:35.026Z,30.90
2019-01-25T18:57:02.434Z,30.47
2019-01-25T18:59:30.012Z,34.40
2019-01-25T19:01:57.402Z,23.70
2019-01-25T19:04:24.810Z,29.20
2019-01-25T19:06:52.246Z,24.83
2019-01-25T19:09:19.652Z,27.70
2019-01-25T19:11:47.054Z,24.53
2019-01-25T19:14:14.589Z,22.90
2019-01-25T19:16:41.969Z,24.73
2019-01-25T19:19:09.462Z,28.67
2019-01-25T19:21:36.905Z,24.50
2019-01-25T19:24:04.319Z,19.57
2019-01-25T19:26:31.750Z,18.47
2019-01-25T19:28:59.202Z,25.90
2019-01-25T19:31:26.598Z,26.80
2019-01-25T19:33:53.993Z,27.17
2019-01-25T19:36:22.366Z,25.30
2019-01-25T19:38:49.927Z,32.93
2019-01-25T19:41:17.326Z,23.42
2019-01-25T19:43:44.823Z,23.45
2019-01-25T19:46:12.521Z,23.33
2019-01-25T19:48:40.210Z,30.60
2019-01-25T19:51:07.771Z,27.53
2019-01-25T19:53:35.539Z,24.77
2019-01-25T19:56:03.414Z,21.33
2019-01-25T19:58:33.823Z,22.00
2019-01-25T20:01:01.246Z,27.13
2019-01-25T20:03:28.673Z,21.90
2019-01-25T20:05:56.121Z,22.50
2019-01-25T20:08:23.538Z,29.70
2019-01-25T20:10:51.042Z,25.90
2019-01-25T20:13:18.817Z,29.57
2019-01-25T20:15:46.232Z,25.50
2019-01-25T20:18:13.662Z,23.00
2019-01-25T20:20:41.485Z,32.63
2019-01-25T20:23:09.032Z,31.73
2019-01-25T20:25:36.470Z,27.93
2019-01-25T20:28:05.797Z,21.63
2019-01-25T20:30:33.334Z,27.17
2019-01-25T20:33:01.579Z,31.95
2019-01-25T20:35:31.582Z,25.43
2019-01-25T20:37:58.977Z,26.57
2019-01-25T20:40:26.639Z,22.45
2019-01-25T20:42:54.475Z,29.30
2019-01-25T20:45:27.192Z,22.13
2019-01-25T20:47:54.634Z,23.02
2019-01-25T20:50:24.538Z,23.92
2019-01-25T20:52:53.870Z,22.35
2019-01-25T20:55:21.280Z,26.97
2019-01-25T20:57:48.867Z,23.97
2019-01-25T21:00:19.329Z,26.68
2019-01-25T21:02:46.811Z,21.50
2019-01-25T21:05:14.658Z,25.37
2019-01-25T21:07:42.171Z,30.40
2019-01-25T21:10:12.112Z,25.45
2019-01-25T21:12:39.818Z,22.55
2019-01-25T21:15:09.001Z,27.85
2019-01-25T21:17:36.414Z,19.55
2019-01-25T21:20:07.043Z,25.10
2019-01-25T21:22:34.518Z,21.65
2019-01-25T21:25:01.964Z,24.82
2019-01-25T21:27:29.420Z,33.90
2019-01-25T21:29:56.887Z,26.55
2019-01-25T21:32:24.290Z,18.32
2019-01-25T21:34:51.736Z,31.20
2019-01-25T21:37:19.150Z,21.87
2019-01-25T21:39:46.554Z,21.25
2019-01-25T21:42:14.139Z,18.40
2019-01-25T21:44:41.818Z,24.33
2019-01-25T21:47:09.532Z,24.37
2019-01-25T21:49:36.934Z,23.83
2019-01-25T21:52:04.433Z,25.55
2019-01-25T21:54:31.847Z,25.15
2019-01-25T21:56:59.839Z,25.55
2019-01-25T21:59:27.252Z,20.85
2019-01-25T22:01:54.668Z,20.82
2019-01-25T22:04:23.342Z,29.63
2019-01-25T22:06:50.890Z,27.40
2019-01-25T22:09:18.302Z,27.93
2019-01-25T22:11:45.942Z,24.15
2019-01-25T22:14:13.340Z,24.37
2019-01-25T22:16:40.762Z,16.00
2019-01-25T22:19:08.543Z,21.05
2019-01-25T22:21:36.962Z,18.45
2019-01-25T22:24:04.463Z,18.62
2019-01-25T22:26:31.943Z,16.50
2019-01-25T22:28:59.343Z,18.65
2019-01-25T22:31:26.763Z,14.30
2019-01-25T22:33:54.236Z,27.40
2019-01-25T22:36:21.639Z,29.82
2019-01-25T22:38:49.030Z,21.00
2019-01-25T22:41:16.619Z,24.45
2019-01-25T22:43:44.027Z,30.97
2019-01-25T22:46:11.658Z,25.48
2019-01-25T22:48:39.619Z,29.40
2019-01-25T22:51:07.006Z,24.02
2019-01-25T22:53:34.418Z,24.85
2019-01-25T22:56:01.902Z,18.45
2019-01-25T22:58:29.320Z,18.60
2019-01-25T23:01:24.251Z,21.12
2019-01-25T23:04:28.909Z,20.70
2019-01-25T23:07:17.406Z,15.88
2019-01-25T23:09:56.339Z,18.85
2019-01-25T23:12:24.104Z,26.95
2019-01-25T23:14:51.488Z,21.10
2019-01-25T23:17:18.909Z,25.97
2019-01-25T23:19:46.483Z,19.85
2019-01-25T23:22:13.879Z,23.60
2019-01-25T23:24:41.289Z,24.93
2019-01-25T23:27:08.774Z,20.80
2019-01-25T23:29:36.170Z,16.50
2019-01-25T23:32:03.934Z,16.00
2019-01-25T23:34:31.466Z,13.75
2019-01-25T23:36:58.863Z,23.02
2019-01-25T23:39:26.258Z,18.20
2019-01-25T23:41:53.734Z,18.20
2019-01-25T23:44:21.123Z,21.97
2019-01-25T23:46:48.674Z,21.75
2019-01-25T23:49:16.735Z,19.70
2019-01-25T23:51:44.130Z,24.45
2019-01-25T23:54:11.536Z,17.80
2019-01-25T23:56:38.961Z,16.25
2019-01-25T23:59:06.370Z,15.95
